createdAt,value
2019-01-27T00:00:07.606Z,99.99
2019-01-27T00:00:33.720Z,99.99
2019-01-27T00:00:59.828Z,99.99
2019-01-27T00:01:25.930Z,99.99
2019-01-27T00:01:52.036Z,99.99
2019-01-27T00:02:18.146Z,99.99
2019-01-27T00:02:44.248Z,99.99
2019-01-27T00:03:10.358Z,99.99
2019-01-27T00:03:36.463Z,99.99
2019-01-27T00:04:02.606Z,99.99
2019-01-27T00:04:28.734Z,99.99
2019-01-27T00:04:54.840Z,99.99
2019-01-27T00:05:20.997Z,99.99
2019-01-27T00:05:47.099Z,99.99
2019-01-27T00:06:13.211Z,99.99
2019-01-27T00:06:39.311Z,99.99
2019-01-27T00:07:05.420Z,99.99
2019-01-27T00:07:31.548Z,99.99
2019-01-27T00:07:57.663Z,99.99
2019-01-27T00:08:24.784Z,99.99
2019-01-27T00:08:50.924Z,99.99
2019-01-27T00:09:17.031Z,99.99
2019-01-27T00:09:43.135Z,99.99
2019-01-27T00:10:09.242Z,99.99
2019-01-27T00:10:35.365Z,99.99
2019-01-27T00:11:01.462Z,99.99
2019-01-27T00:11:27.565Z,99.99
2019-01-27T00:11:53.674Z,99.99
2019-01-27T00:12:19.778Z,99.99
2019-01-27T00:12:45.937Z,99.99
2019-01-27T00:13:12.037Z,99.99
2019-01-27T00:13:38.147Z,99.99
2019-01-27T00:14:04.245Z,99.99
2019-01-27T00:14:30.362Z,99.99
2019-01-27T00:14:56.520Z,99.99
2019-01-27T00:15:22.619Z,99.99
2019-01-27T00:15:48.722Z,99.99
2019-01-27T00:16:14.858Z,99.99
2019-01-27T00:16:41.006Z,99.98
2019-01-27T00:17:07.119Z,99.99
2019-01-27T00:17:33.221Z,99.99
2019-01-27T00:17:59.326Z,99.98
2019-01-27T00:18:25.434Z,99.99
2019-01-27T00:18:51.536Z,99.99
2019-01-27T00:19:17.645Z,99.79
2019-01-27T00:19:43.750Z,99.99
2019-01-27T00:20:09.853Z,99.99
2019-01-27T00:20:35.966Z,99.99
2019-01-27T00:21:02.075Z,99.99
2019-01-27T00:21:28.192Z,98.93
2019-01-27T00:21:54.289Z,99.12
2019-01-27T00:22:20.399Z,99.12
2019-01-27T00:22:46.543Z,99.31
2019-01-27T00:23:12.817Z,99.41
2019-01-27T00:23:38.883Z,99.12
2019-01-27T00:24:05.056Z,99.02
2019-01-27T00:24:31.188Z,99.99
2019-01-27T00:24:57.325Z,99.74
2019-01-27T00:25:23.682Z,99.74
2019-01-27T00:25:49.758Z,99.99
2019-01-27T00:26:15.866Z,99.99
2019-01-27T00:26:41.970Z,99.99
2019-01-27T00:27:08.100Z,99.99
2019-01-27T00:27:34.238Z,99.99
2019-01-27T00:28:00.347Z,99.99
2019-01-27T00:28:26.483Z,99.99
2019-01-27T00:28:52.588Z,99.99
2019-01-27T00:29:18.697Z,99.99
2019-01-27T00:29:44.804Z,99.99
2019-01-27T00:30:10.908Z,99.99
2019-01-27T00:30:37.016Z,99.99
2019-01-27T00:31:03.113Z,99.99
2019-01-27T00:31:29.246Z,99.99
2019-01-27T00:31:55.428Z,99.99
2019-01-27T00:32:21.494Z,99.99
2019-01-27T00:32:47.624Z,99.99
2019-01-27T00:33:13.737Z,99.99
2019-01-27T00:33:39.846Z,99.99
2019-01-27T00:34:05.950Z,99.99
2019-01-27T00:34:32.075Z,99.99
2019-01-27T00:34:58.257Z,99.99
2019-01-27T00:35:24.329Z,99.99
2019-01-27T00:35:50.434Z,99.99
2019-01-27T00:36:16.565Z,99.99
2019-01-27T00:36:42.675Z,99.99
2019-01-27T00:37:08.776Z,99.99
2019-01-27T00:37:34.881Z,99.99
2019-01-27T00:38:01.052Z,99.99
2019-01-27T00:38:27.157Z,99.99
2019-01-27T00:38:53.314Z,99.99
2019-01-27T00:39:19.426Z,99.99
2019-01-27T00:39:45.683Z,99.99
2019-01-27T00:40:11.835Z,99.99
2019-01-27T00:40:37.942Z,99.99
2019-01-27T00:41:04.043Z,99.99
2019-01-27T00:41:30.164Z,99.99
2019-01-27T00:41:56.357Z,99.99
2019-01-27T00:42:22.473Z,99.99
2019-01-27T00:42:48.574Z,99.99
2019-01-27T00:43:14.689Z,99.99
2019-01-27T00:43:40.823Z,99.99
2019-01-27T00:44:06.926Z,99.99
2019-01-27T00:44:33.036Z,99.99
2019-01-27T00:44:59.168Z,99.99
2019-01-27T00:45:25.298Z,99.99
2019-01-27T00:45:51.380Z,99.99
2019-01-27T00:46:17.510Z,99.99
2019-01-27T00:46:43.621Z,99.99
2019-01-27T00:47:09.729Z,99.99
2019-01-27T00:47:35.832Z,99.99
2019-01-27T00:48:01.947Z,99.99
2019-01-27T00:48:28.052Z,99.99
2019-01-27T00:48:54.155Z,99.99
2019-01-27T00:49:20.262Z,99.99
2019-01-27T00:49:46.397Z,99.99
2019-01-27T00:50:12.498Z,99.99
2019-01-27T00:50:38.640Z,99.99
2019-01-27T00:51:04.742Z,99.99
2019-01-27T00:51:30.851Z,99.99
2019-01-27T00:51:56.956Z,99.99
2019-01-27T00:52:23.067Z,99.99
2019-01-27T00:52:49.193Z,99.99
2019-01-27T00:53:15.337Z,99.99
2019-01-27T00:53:41.445Z,99.99
2019-01-27T00:54:07.555Z,99.99
2019-01-27T00:54:33.657Z,99.99
2019-01-27T00:54:59.798Z,99.99
2019-01-27T00:55:25.921Z,99.99
2019-01-27T00:55:52.019Z,99.99
2019-01-27T00:56:18.130Z,99.99
2019-01-27T00:56:44.232Z,99.99
2019-01-27T00:57:10.336Z,99.99
2019-01-27T00:57:36.440Z,99.99
2019-01-27T00:58:02.560Z,99.99
2019-01-27T00:58:28.753Z,99.99
2019-01-27T00:58:54.865Z,99.99
2019-01-27T00:59:20.967Z,99.99
2019-01-27T00:59:47.080Z,99.99
2019-01-27T01:00:13.209Z,99.99
2019-01-27T01:00:39.321Z,99.99
2019-01-27T01:01:05.420Z,99.99
2019-01-27T01:01:31.568Z,99.99
2019-01-27T01:01:57.698Z,99.99
2019-01-27T01:02:23.800Z,99.99
2019-01-27T01:02:49.902Z,99.99
2019-01-27T01:03:16.014Z,99.99
2019-01-27T01:03:42.117Z,99.99
2019-01-27T01:04:08.279Z,99.99
2019-01-27T01:04:34.411Z,99.99
2019-01-27T01:05:00.519Z,99.99
2019-01-27T01:05:26.627Z,99.99
2019-01-27T01:05:52.729Z,99.99
2019-01-27T01:06:18.837Z,99.99
2019-01-27T01:06:45.155Z,99.99
2019-01-27T01:07:11.255Z,99.99
2019-01-27T01:07:37.358Z,99.99
2019-01-27T01:08:03.467Z,99.99
2019-01-27T01:08:29.590Z,99.99
2019-01-27T01:08:55.732Z,99.99
2019-01-27T01:09:21.872Z,99.99
2019-01-27T01:09:48.121Z,99.99
2019-01-27T01:10:14.200Z,99.99
2019-01-27T01:10:40.304Z,99.99
2019-01-27T01:11:06.416Z,99.99
2019-01-27T01:11:32.540Z,99.99
2019-01-27T01:11:58.692Z,99.99
2019-01-27T01:12:24.797Z,99.99
2019-01-27T01:12:50.932Z,99.99
2019-01-27T01:13:17.053Z,99.99
2019-01-27T01:13:43.162Z,99.99
2019-01-27T01:14:09.323Z,99.99
2019-01-27T01:14:35.435Z,99.99
2019-01-27T01:15:01.541Z,99.99
2019-01-27T01:15:27.655Z,99.99
2019-01-27T01:15:53.790Z,99.99
2019-01-27T01:16:19.894Z,99.99
2019-01-27T01:16:46.002Z,99.99
2019-01-27T01:17:12.110Z,99.99
2019-01-27T01:17:38.210Z,99.99
2019-01-27T01:18:04.319Z,99.99
2019-01-27T01:18:30.448Z,99.99
2019-01-27T01:18:56.593Z,99.99
2019-01-27T01:19:22.694Z,99.99
2019-01-27T01:19:48.802Z,99.99
2019-01-27T01:20:14.902Z,99.99
2019-01-27T01:20:41.046Z,99.99
2019-01-27T01:21:07.153Z,99.99
2019-01-27T01:21:33.262Z,99.99
2019-01-27T01:21:59.363Z,99.99
2019-01-27T01:22:25.465Z,99.99
2019-01-27T01:22:51.603Z,99.99
2019-01-27T01:23:17.711Z,99.99
2019-01-27T01:23:43.837Z,99.99
2019-01-27T01:24:09.950Z,99.99
2019-01-27T01:24:36.057Z,99.99
2019-01-27T01:25:02.159Z,99.99
2019-01-27T01:25:28.260Z,99.99
2019-01-27T01:25:54.363Z,99.99
2019-01-27T01:26:20.469Z,99.99
2019-01-27T01:26:46.575Z,99.99
2019-01-27T01:27:12.680Z,99.99
2019-01-27T01:27:38.784Z,99.99
2019-01-27T01:28:04.891Z,99.99
2019-01-27T01:28:31.002Z,99.99
2019-01-27T01:28:57.107Z,99.99
2019-01-27T01:29:23.217Z,99.99
2019-01-27T01:29:49.314Z,99.99
2019-01-27T01:30:15.425Z,99.99
2019-01-27T01:30:41.575Z,99.99
2019-01-27T01:31:07.684Z,99.99
2019-01-27T01:31:33.793Z,99.99
2019-01-27T01:31:59.898Z,99.99
2019-01-27T01:32:26.029Z,99.99
2019-01-27T01:32:52.169Z,99.99
2019-01-27T01:33:18.298Z,99.99
2019-01-27T01:33:44.403Z,99.99
2019-01-27T01:34:10.512Z,99.99
2019-01-27T01:34:36.645Z,99.99
2019-01-27T01:35:02.786Z,99.99
2019-01-27T01:35:28.888Z,99.99
2019-01-27T01:35:55.026Z,99.99
2019-01-27T01:36:21.129Z,99.99
2019-01-27T01:36:47.238Z,99.99
2019-01-27T01:37:13.344Z,99.99
2019-01-27T01:37:39.473Z,99.99
2019-01-27T01:38:05.576Z,99.99
2019-01-27T01:38:31.676Z,99.99
2019-01-27T01:38:57.777Z,99.99
2019-01-27T01:39:23.886Z,99.99
2019-01-27T01:39:49.992Z,99.99
2019-01-27T01:40:16.092Z,99.99
2019-01-27T01:40:42.201Z,99.99
2019-01-27T01:41:08.329Z,99.99
2019-01-27T01:41:34.442Z,99.99
2019-01-27T01:42:00.541Z,99.99
2019-01-27T01:42:26.647Z,99.99
2019-01-27T01:42:52.778Z,99.99
2019-01-27T01:43:18.920Z,99.99
2019-01-27T01:43:45.078Z,99.99
2019-01-27T01:44:11.185Z,99.99
2019-01-27T01:44:37.283Z,99.99
2019-01-27T01:45:03.433Z,99.99
2019-01-27T01:45:29.526Z,99.99
2019-01-27T01:45:55.634Z,99.99
2019-01-27T01:46:21.731Z,99.99
2019-01-27T01:46:47.838Z,99.99
2019-01-27T01:47:13.941Z,99.99
2019-01-27T01:47:40.085Z,99.99
2019-01-27T01:48:06.189Z,99.99
2019-01-27T01:48:32.300Z,99.99
2019-01-27T01:48:58.438Z,99.99
2019-01-27T01:49:24.541Z,99.99
2019-01-27T01:49:50.645Z,99.99
2019-01-27T01:50:16.767Z,99.99
2019-01-27T01:50:42.870Z,99.99
2019-01-27T01:51:09.002Z,99.99
2019-01-27T01:51:35.104Z,99.99
2019-01-27T01:52:01.210Z,99.99
2019-01-27T01:52:27.427Z,99.99
2019-01-27T01:52:53.541Z,99.99
2019-01-27T01:53:19.678Z,99.99
2019-01-27T01:53:45.781Z,99.99
2019-01-27T01:54:11.887Z,99.99
2019-01-27T01:54:37.992Z,99.99
2019-01-27T01:55:04.103Z,99.99
2019-01-27T01:55:30.211Z,99.99
2019-01-27T01:55:56.312Z,99.99
2019-01-27T01:56:22.423Z,99.99
2019-01-27T01:56:48.552Z,99.99
2019-01-27T01:57:14.660Z,99.99
2019-01-27T01:57:40.767Z,99.99
2019-01-27T01:58:06.866Z,99.99
2019-01-27T01:58:32.978Z,99.99
2019-01-27T01:58:59.085Z,99.99
2019-01-27T01:59:25.186Z,99.99
2019-01-27T01:59:51.323Z,99.99
2019-01-27T02:00:17.422Z,99.99
2019-01-27T02:00:43.532Z,99.99
2019-01-27T02:01:09.631Z,99.99
2019-01-27T02:01:35.743Z,99.99
2019-01-27T02:02:01.872Z,99.99
2019-01-27T02:02:27.983Z,99.99
2019-01-27T02:02:54.116Z,99.99
2019-01-27T02:03:20.222Z,99.99
2019-01-27T02:03:46.379Z,99.99
2019-01-27T02:04:12.543Z,99.99
2019-01-27T02:04:38.682Z,99.99
2019-01-27T02:05:04.837Z,99.99
2019-01-27T02:05:30.968Z,99.99
2019-01-27T02:05:57.105Z,99.99
2019-01-27T02:06:23.215Z,99.99
2019-01-27T02:06:49.349Z,99.99
2019-01-27T02:07:15.458Z,99.99
2019-01-27T02:07:41.559Z,99.99
2019-01-27T02:08:07.673Z,99.99
2019-01-27T02:08:33.772Z,99.99
2019-01-27T02:08:59.878Z,99.99
2019-01-27T02:09:25.987Z,99.99
2019-01-27T02:09:52.197Z,99.99
2019-01-27T02:10:18.332Z,99.99
2019-01-27T02:10:44.434Z,99.99
2019-01-27T02:11:10.568Z,99.99
2019-01-27T02:11:36.665Z,99.99
2019-01-27T02:12:02.773Z,99.99
2019-01-27T02:12:28.889Z,99.99
2019-01-27T02:12:54.992Z,99.99
2019-01-27T02:13:21.090Z,99.99
2019-01-27T02:13:47.206Z,99.99
2019-01-27T02:14:13.331Z,99.99
2019-01-27T02:14:39.446Z,99.99
2019-01-27T02:15:05.553Z,99.99
2019-01-27T02:15:31.693Z,99.99
2019-01-27T02:15:57.789Z,99.99
2019-01-27T02:16:23.897Z,99.99
2019-01-27T02:16:50.031Z,99.99
2019-01-27T02:17:16.163Z,99.99
2019-01-27T02:17:42.258Z,99.99
2019-01-27T02:18:08.395Z,99.99
2019-01-27T02:18:34.507Z,99.99
2019-01-27T02:19:00.626Z,99.99
2019-01-27T02:19:26.719Z,99.99
2019-01-27T02:19:52.823Z,99.99
2019-01-27T02:20:18.936Z,99.99
2019-01-27T02:20:45.039Z,99.99
2019-01-27T02:21:11.183Z,99.99
2019-01-27T02:21:37.285Z,99.99
2019-01-27T02:22:03.413Z,99.99
2019-01-27T02:22:29.514Z,99.99
2019-01-27T02:22:55.624Z,99.99
2019-01-27T02:23:21.725Z,99.99
2019-01-27T02:23:47.819Z,99.99
2019-01-27T02:24:13.930Z,99.99
2019-01-27T02:24:40.042Z,99.99
2019-01-27T02:25:06.166Z,99.99
2019-01-27T02:25:32.261Z,99.99
2019-01-27T02:25:58.369Z,99.99
2019-01-27T02:26:24.478Z,99.99
2019-01-27T02:26:50.580Z,99.99
2019-01-27T02:27:16.722Z,99.99
2019-01-27T02:27:42.822Z,99.99
2019-01-27T02:28:08.923Z,99.99
2019-01-27T02:28:35.033Z,99.99
2019-01-27T02:29:01.141Z,99.99
2019-01-27T02:29:27.243Z,99.99
2019-01-27T02:29:53.372Z,99.99
2019-01-27T02:30:19.466Z,99.99
2019-01-27T02:30:45.598Z,99.99
2019-01-27T02:31:11.794Z,99.99
2019-01-27T02:31:37.896Z,99.99
2019-01-27T02:32:04.025Z,99.99
2019-01-27T02:32:30.163Z,99.99
2019-01-27T02:32:56.291Z,99.99
2019-01-27T02:33:22.401Z,99.99
2019-01-27T02:33:48.509Z,99.99
2019-01-27T02:34:14.615Z,99.99
2019-01-27T02:34:40.744Z,99.99
2019-01-27T02:35:06.910Z,99.99
2019-01-27T02:35:33.006Z,99.99
2019-01-27T02:35:59.176Z,99.99
2019-01-27T02:36:25.286Z,99.99
2019-01-27T02:36:51.385Z,99.99
2019-01-27T02:37:17.528Z,99.99
2019-01-27T02:37:43.638Z,99.99
2019-01-27T02:38:09.789Z,99.99
2019-01-27T02:38:35.941Z,99.99
2019-01-27T02:39:02.037Z,99.99
2019-01-27T02:39:28.170Z,99.99
2019-01-27T02:39:54.280Z,99.99
2019-01-27T02:40:20.388Z,99.99
2019-01-27T02:40:46.564Z,99.99
2019-01-27T02:41:12.618Z,99.99
2019-01-27T02:41:38.746Z,99.99
2019-01-27T02:42:04.848Z,99.99
2019-01-27T02:42:30.964Z,99.99
2019-01-27T02:42:57.089Z,99.99
2019-01-27T02:43:23.248Z,99.99
2019-01-27T02:43:49.352Z,99.99
2019-01-27T02:44:15.493Z,99.99
2019-01-27T02:44:41.596Z,99.99
2019-01-27T02:45:07.705Z,99.99
2019-01-27T02:45:33.816Z,99.99
2019-01-27T02:45:59.968Z,99.99
2019-01-27T02:46:26.082Z,99.99
2019-01-27T02:46:52.182Z,99.99
2019-01-27T02:47:18.286Z,99.99
2019-01-27T02:47:44.397Z,99.99
2019-01-27T02:48:10.508Z,99.99
2019-01-27T02:48:36.669Z,99.99
2019-01-27T02:49:02.783Z,99.99
2019-01-27T02:49:28.880Z,99.99
2019-01-27T02:49:54.987Z,99.99
2019-01-27T02:50:21.090Z,99.99
2019-01-27T02:50:47.196Z,99.99
2019-01-27T02:51:13.302Z,99.99
2019-01-27T02:51:39.416Z,99.99
2019-01-27T02:52:05.515Z,99.99
2019-01-27T02:52:31.655Z,99.99
2019-01-27T02:52:57.789Z,99.99
2019-01-27T02:53:23.921Z,99.99
2019-01-27T02:53:50.029Z,99.99
2019-01-27T02:54:16.186Z,99.99
2019-01-27T02:54:42.321Z,99.99
2019-01-27T02:55:08.428Z,99.99
2019-01-27T02:55:34.574Z,99.99
2019-01-27T02:56:00.678Z,99.99
2019-01-27T02:56:26.813Z,99.99
2019-01-27T02:56:52.975Z,99.99
2019-01-27T02:57:19.098Z,99.99
2019-01-27T02:57:45.203Z,99.99
2019-01-27T02:58:11.315Z,99.99
2019-01-27T02:58:37.443Z,99.99
2019-01-27T02:59:03.551Z,99.99
2019-01-27T02:59:29.655Z,99.99
2019-01-27T02:59:55.779Z,99.99
2019-01-27T03:00:21.912Z,99.99
2019-01-27T03:00:48.048Z,99.99
2019-01-27T03:01:14.145Z,99.99
2019-01-27T03:01:40.253Z,99.99
2019-01-27T03:02:06.357Z,99.99
2019-01-27T03:02:32.460Z,99.99
2019-01-27T03:02:58.570Z,99.99
2019-01-27T03:03:24.707Z,99.99
2019-01-27T03:03:50.812Z,99.99
2019-01-27T03:04:16.943Z,99.99
2019-01-27T03:04:43.085Z,99.99
2019-01-27T03:05:09.190Z,99.99
2019-01-27T03:05:35.293Z,99.99
2019-01-27T03:06:01.400Z,99.99
2019-01-27T03:06:27.508Z,99.99
2019-01-27T03:06:53.626Z,99.99
2019-01-27T03:07:19.766Z,99.99
2019-01-27T03:07:45.877Z,99.99
2019-01-27T03:08:11.984Z,99.99
2019-01-27T03:08:38.086Z,99.99
2019-01-27T03:09:04.183Z,99.99
2019-01-27T03:09:30.292Z,99.99
2019-01-27T03:09:56.401Z,99.99
2019-01-27T03:10:22.509Z,99.99
2019-01-27T03:10:48.650Z,99.99
2019-01-27T03:11:14.864Z,99.99
2019-01-27T03:11:40.999Z,99.99
2019-01-27T03:12:07.133Z,99.99
2019-01-27T03:12:33.288Z,99.99
2019-01-27T03:12:59.390Z,99.99
2019-01-27T03:13:25.501Z,99.99
2019-01-27T03:13:51.603Z,99.99
2019-01-27T03:14:17.781Z,99.99
2019-01-27T03:14:43.887Z,99.99
2019-01-27T03:15:09.991Z,99.99
2019-01-27T03:15:36.128Z,99.99
2019-01-27T03:16:02.230Z,99.99
2019-01-27T03:16:28.334Z,99.99
2019-01-27T03:16:54.438Z,99.99
2019-01-27T03:17:20.568Z,99.99
2019-01-27T03:17:46.677Z,99.99
2019-01-27T03:18:12.782Z,99.99
2019-01-27T03:18:38.884Z,99.99
2019-01-27T03:19:04.992Z,99.99
2019-01-27T03:19:31.096Z,99.99
2019-01-27T03:19:57.200Z,99.99
2019-01-27T03:20:23.306Z,99.99
2019-01-27T03:20:49.415Z,99.99
2019-01-27T03:21:15.535Z,99.99
2019-01-27T03:21:41.644Z,99.99
2019-01-27T03:22:07.744Z,99.99
2019-01-27T03:22:33.855Z,99.99
2019-01-27T03:23:00.034Z,99.99
2019-01-27T03:23:26.125Z,99.99
2019-01-27T03:23:52.233Z,99.99
2019-01-27T03:24:18.357Z,99.99
2019-01-27T03:24:44.464Z,99.99
2019-01-27T03:25:10.582Z,99.99
2019-01-27T03:25:36.708Z,99.99
2019-01-27T03:26:02.841Z,99.99
2019-01-27T03:26:28.974Z,99.99
2019-01-27T03:26:55.099Z,99.99
2019-01-27T03:27:21.201Z,99.99
2019-01-27T03:27:47.360Z,99.99
2019-01-27T03:28:13.439Z,99.99
2019-01-27T03:28:39.542Z,99.99
2019-01-27T03:29:05.657Z,99.99
2019-01-27T03:29:31.791Z,99.99
2019-01-27T03:29:57.889Z,99.99
2019-01-27T03:30:24.136Z,99.99
2019-01-27T03:30:50.331Z,99.99
2019-01-27T03:31:16.487Z,99.99
2019-01-27T03:31:42.682Z,99.99
2019-01-27T03:32:08.863Z,99.99
2019-01-27T03:32:35.048Z,99.99
2019-01-27T03:33:01.234Z,99.99
2019-01-27T03:33:27.513Z,99.99
2019-01-27T03:33:53.553Z,99.99
2019-01-27T03:34:19.668Z,99.99
2019-01-27T03:34:45.778Z,99.99
2019-01-27T03:35:11.877Z,99.99
2019-01-27T03:35:37.996Z,99.99
2019-01-27T03:36:04.137Z,99.99
2019-01-27T03:36:30.271Z,99.99
2019-01-27T03:36:56.454Z,99.99
2019-01-27T03:37:22.613Z,99.99
2019-01-27T03:37:48.761Z,99.99
2019-01-27T03:38:14.891Z,99.99
2019-01-27T03:38:41.055Z,99.99
2019-01-27T03:39:07.189Z,99.99
2019-01-27T03:39:33.292Z,99.99
2019-01-27T03:39:59.398Z,99.99
2019-01-27T03:40:25.498Z,99.99
2019-01-27T03:40:51.644Z,99.99
2019-01-27T03:41:17.749Z,99.99
2019-01-27T03:41:43.864Z,99.99
2019-01-27T03:42:09.963Z,99.99
2019-01-27T03:42:36.068Z,99.99
2019-01-27T03:43:02.175Z,99.99
2019-01-27T03:43:28.282Z,99.99
2019-01-27T03:43:54.389Z,99.99
2019-01-27T03:44:20.492Z,99.99
2019-01-27T03:44:46.638Z,99.99
2019-01-27T03:45:12.750Z,99.99
2019-01-27T03:45:38.852Z,99.99
2019-01-27T03:46:04.959Z,99.99
2019-01-27T03:46:31.083Z,99.99
2019-01-27T03:46:57.188Z,99.99
2019-01-27T03:47:23.321Z,99.99
2019-01-27T03:47:49.424Z,99.99
2019-01-27T03:48:15.570Z,99.99
2019-01-27T03:48:41.694Z,99.99
2019-01-27T03:49:07.825Z,99.99
2019-01-27T03:49:33.934Z,99.99
2019-01-27T03:50:00.044Z,99.99
2019-01-27T03:50:26.171Z,99.99
2019-01-27T03:50:52.276Z,99.99
2019-01-27T03:51:18.381Z,99.99
2019-01-27T03:51:44.502Z,99.99
2019-01-27T03:52:10.614Z,99.99
2019-01-27T03:52:36.725Z,99.99
2019-01-27T03:53:02.833Z,99.99
2019-01-27T03:53:28.999Z,99.99
2019-01-27T03:53:55.155Z,99.99
2019-01-27T03:54:21.269Z,99.99
2019-01-27T03:54:47.408Z,99.99
2019-01-27T03:55:13.538Z,99.99
2019-01-27T03:55:39.681Z,99.99
2019-01-27T03:56:05.806Z,99.99
2019-01-27T03:56:31.918Z,99.99
2019-01-27T03:56:58.024Z,99.99
2019-01-27T03:57:24.156Z,99.99
2019-01-27T03:57:50.253Z,99.99
2019-01-27T03:58:16.357Z,99.99
2019-01-27T03:58:42.465Z,99.99
2019-01-27T03:59:08.570Z,99.99
2019-01-27T03:59:34.706Z,99.99
2019-01-27T04:00:00.857Z,99.99
2019-01-27T04:00:26.942Z,99.99
2019-01-27T04:00:53.089Z,99.99
2019-01-27T04:01:19.197Z,99.99
2019-01-27T04:01:46.225Z,99.99
2019-01-27T04:02:12.361Z,99.99
2019-01-27T04:02:38.465Z,99.99
2019-01-27T04:03:04.592Z,99.99
2019-01-27T04:03:30.703Z,99.99
2019-01-27T04:03:56.798Z,99.99
2019-01-27T04:04:22.931Z,99.99
2019-01-27T04:04:49.042Z,99.99
2019-01-27T04:05:15.177Z,99.99
2019-01-27T04:05:41.324Z,99.99
2019-01-27T04:06:07.425Z,99.99
2019-01-27T04:06:33.555Z,99.99
2019-01-27T04:06:59.713Z,99.99
2019-01-27T04:07:25.820Z,99.99
2019-01-27T04:07:51.923Z,99.99
2019-01-27T04:08:18.062Z,99.99
2019-01-27T04:08:44.166Z,99.99
2019-01-27T04:09:10.302Z,99.99
2019-01-27T04:09:36.436Z,99.99
2019-01-27T04:10:02.544Z,99.99
2019-01-27T04:10:28.649Z,99.99
2019-01-27T04:10:55.217Z,99.99
2019-01-27T04:11:21.374Z,99.99
2019-01-27T04:11:47.491Z,99.99
2019-01-27T04:12:13.648Z,99.99
2019-01-27T04:12:39.788Z,99.99
2019-01-27T04:13:05.891Z,99.99
2019-01-27T04:13:32.023Z,99.99
2019-01-27T04:13:58.158Z,99.99
2019-01-27T04:14:24.296Z,99.99
2019-01-27T04:14:50.399Z,99.99
2019-01-27T04:15:16.530Z,99.99
2019-01-27T04:15:42.664Z,99.99
2019-01-27T04:16:08.842Z,99.99
2019-01-27T04:16:34.963Z,99.99
2019-01-27T04:17:01.102Z,99.99
2019-01-27T04:17:27.219Z,99.99
2019-01-27T04:17:53.358Z,99.99
2019-01-27T04:18:19.479Z,99.99
2019-01-27T04:18:45.615Z,99.99
2019-01-27T04:19:11.720Z,99.99
2019-01-27T04:19:37.830Z,99.99
2019-01-27T04:20:03.958Z,99.99
2019-01-27T04:20:30.093Z,99.99
2019-01-27T04:20:56.198Z,99.99
2019-01-27T04:21:22.304Z,99.99
2019-01-27T04:21:48.445Z,99.99
2019-01-27T04:22:14.554Z,99.99
2019-01-27T04:22:40.674Z,99.99
2019-01-27T04:23:06.831Z,99.99
2019-01-27T04:23:33.015Z,99.99
2019-01-27T04:23:59.127Z,99.99
2019-01-27T04:24:25.264Z,99.99
2019-01-27T04:24:51.373Z,99.99
2019-01-27T04:25:17.535Z,99.99
2019-01-27T04:25:43.642Z,99.99
2019-01-27T04:26:09.745Z,99.99
2019-01-27T04:26:35.893Z,99.99
2019-01-27T04:27:01.983Z,99.99
2019-01-27T04:27:28.088Z,99.99
2019-01-27T04:27:54.227Z,99.99
2019-01-27T04:28:21.349Z,99.99
2019-01-27T04:28:47.453Z,99.99
2019-01-27T04:29:13.564Z,99.99
2019-01-27T04:29:39.665Z,99.99
2019-01-27T04:30:05.776Z,99.99
2019-01-27T04:30:31.888Z,99.99
2019-01-27T04:30:57.993Z,99.99
2019-01-27T04:31:24.115Z,99.99
2019-01-27T04:31:50.276Z,99.99
2019-01-27T04:32:16.378Z,99.99
2019-01-27T04:32:42.514Z,99.99
2019-01-27T04:33:08.614Z,99.99
2019-01-27T04:33:34.752Z,99.99
2019-01-27T04:34:00.879Z,99.99
2019-01-27T04:34:27.007Z,99.99
2019-01-27T04:34:53.109Z,99.99
2019-01-27T04:35:19.238Z,99.99
2019-01-27T04:35:45.407Z,99.99
2019-01-27T04:36:11.488Z,99.99
2019-01-27T04:36:37.586Z,99.99
2019-01-27T04:37:03.690Z,99.99
2019-01-27T04:37:29.798Z,99.99
2019-01-27T04:37:55.933Z,99.99
2019-01-27T04:38:22.032Z,99.99
2019-01-27T04:38:48.139Z,99.99
2019-01-27T04:39:14.245Z,99.99
2019-01-27T04:39:40.349Z,99.99
2019-01-27T04:40:06.462Z,99.99
2019-01-27T04:40:32.596Z,99.99
2019-01-27T04:40:58.706Z,99.99
2019-01-27T04:41:24.807Z,99.99
2019-01-27T04:41:50.936Z,99.99
2019-01-27T04:42:17.109Z,99.99
2019-01-27T04:42:43.195Z,99.99
2019-01-27T04:43:09.304Z,99.99
2019-01-27T04:43:35.435Z,99.99
2019-01-27T04:44:01.574Z,99.99
2019-01-27T04:44:27.693Z,99.99
2019-01-27T04:44:53.795Z,99.99
2019-01-27T04:45:19.904Z,99.99
2019-01-27T04:45:46.019Z,99.99
2019-01-27T04:46:12.152Z,99.99
2019-01-27T04:46:38.263Z,99.99
2019-01-27T04:47:04.385Z,99.99
2019-01-27T04:47:30.511Z,99.99
2019-01-27T04:47:56.625Z,99.99
2019-01-27T04:48:22.728Z,99.99
2019-01-27T04:48:48.838Z,99.99
2019-01-27T04:49:14.940Z,99.99
2019-01-27T04:49:41.075Z,99.99
2019-01-27T04:50:07.214Z,99.99
2019-01-27T04:50:33.354Z,99.99
2019-01-27T04:50:59.465Z,99.99
2019-01-27T04:51:25.613Z,99.99
2019-01-27T04:51:51.783Z,99.99
2019-01-27T04:52:17.917Z,99.99
2019-01-27T04:52:44.014Z,99.99
2019-01-27T04:53:10.151Z,99.99
2019-01-27T04:53:36.272Z,99.99
2019-01-27T04:54:02.371Z,99.99
2019-01-27T04:54:28.512Z,99.99
2019-01-27T04:54:54.617Z,99.99
2019-01-27T04:55:20.720Z,99.99
2019-01-27T04:55:46.829Z,99.99
2019-01-27T04:56:12.937Z,99.99
2019-01-27T04:56:39.091Z,99.99
2019-01-27T04:57:05.228Z,99.99
2019-01-27T04:57:31.330Z,99.99
2019-01-27T04:57:57.467Z,99.99
2019-01-27T04:58:23.595Z,99.99
2019-01-27T04:58:49.697Z,99.99
2019-01-27T04:59:15.837Z,99.99
2019-01-27T04:59:41.977Z,99.99
2019-01-27T05:00:08.164Z,99.99
2019-01-27T05:00:34.298Z,99.99
2019-01-27T05:01:00.457Z,99.99
2019-01-27T05:01:26.561Z,99.99
2019-01-27T05:01:52.668Z,99.99
2019-01-27T05:02:18.772Z,99.99
2019-01-27T05:02:44.873Z,99.99
2019-01-27T05:03:11.071Z,99.99
2019-01-27T05:03:37.141Z,99.99
2019-01-27T05:04:03.254Z,99.99
2019-01-27T05:04:29.376Z,99.99
2019-01-27T05:04:55.511Z,99.99
2019-01-27T05:05:21.639Z,99.99
2019-01-27T05:05:47.742Z,99.99
2019-01-27T05:06:13.854Z,99.99
2019-01-27T05:06:39.988Z,99.99
2019-01-27T05:07:06.110Z,99.99
2019-01-27T05:07:32.221Z,99.99
2019-01-27T05:07:58.319Z,99.99
2019-01-27T05:08:24.421Z,99.99
2019-01-27T05:08:50.556Z,99.99
2019-01-27T05:09:16.658Z,99.99
2019-01-27T05:09:42.769Z,99.99
2019-01-27T05:10:08.921Z,99.99
2019-01-27T05:10:35.027Z,99.99
2019-01-27T05:11:01.133Z,99.99
2019-01-27T05:11:27.262Z,99.99
2019-01-27T05:11:53.373Z,99.99
2019-01-27T05:12:19.504Z,99.99
2019-01-27T05:12:45.633Z,99.99
2019-01-27T05:13:11.773Z,99.99
2019-01-27T05:13:37.877Z,99.99
2019-01-27T05:14:03.983Z,99.99
2019-01-27T05:14:30.124Z,99.99
2019-01-27T05:14:56.253Z,99.99
2019-01-27T05:15:22.360Z,99.99
2019-01-27T05:15:48.468Z,99.99
2019-01-27T05:16:14.607Z,99.99
2019-01-27T05:16:40.731Z,99.99
2019-01-27T05:17:06.842Z,99.99
2019-01-27T05:17:32.941Z,99.99
2019-01-27T05:17:59.052Z,99.99
2019-01-27T05:18:25.211Z,99.99
2019-01-27T05:18:51.321Z,99.99
2019-01-27T05:19:17.427Z,99.99
2019-01-27T05:19:43.559Z,99.99
2019-01-27T05:20:09.663Z,99.99
2019-01-27T05:20:35.769Z,99.99
2019-01-27T05:21:01.888Z,99.99
2019-01-27T05:21:28.005Z,99.99
2019-01-27T05:21:55.125Z,99.99
2019-01-27T05:22:21.225Z,99.99
2019-01-27T05:22:47.360Z,99.99
2019-01-27T05:23:13.474Z,99.99
2019-01-27T05:23:39.579Z,99.99
2019-01-27T05:24:05.681Z,99.99
2019-01-27T05:24:31.787Z,99.99
2019-01-27T05:24:57.907Z,99.99
2019-01-27T05:25:24.007Z,99.99
2019-01-27T05:25:50.149Z,99.99
2019-01-27T05:26:16.255Z,99.99
2019-01-27T05:26:42.384Z,99.99
2019-01-27T05:27:08.496Z,99.99
2019-01-27T05:27:35.625Z,99.99
2019-01-27T05:28:01.756Z,99.99
2019-01-27T05:28:27.885Z,99.99
2019-01-27T05:28:54.046Z,99.99
2019-01-27T05:29:20.108Z,99.99
2019-01-27T05:29:46.215Z,99.99
2019-01-27T05:30:12.313Z,99.99
2019-01-27T05:30:38.421Z,99.99
2019-01-27T05:31:04.527Z,99.99
2019-01-27T05:31:30.630Z,99.99
2019-01-27T05:31:56.751Z,99.99
2019-01-27T05:32:22.849Z,99.99
2019-01-27T05:32:48.967Z,99.99
2019-01-27T05:33:15.084Z,99.99
2019-01-27T05:33:41.193Z,99.99
2019-01-27T05:34:07.292Z,99.99
2019-01-27T05:34:33.434Z,99.99
2019-01-27T05:34:59.566Z,99.99
2019-01-27T05:35:25.676Z,99.99
2019-01-27T05:35:51.804Z,99.99
2019-01-27T05:36:17.910Z,99.99